sensor_id;sensor_type;location;lat;lon;timestamp;P1;P2;P0
55276;PMS5003;41136;51.478;-2.610;2023-07-02T00:00:23;22;18;
55276;PMS5003;41136;51.478;-2.610;2023-07-02T00:02:48;15;15;
55276;PMS5003;41136;51.478;-2.610;2023-07-02T00:05:13;15;12;
55276;PMS5003;41136;51.478;-2.610;2023-07-02T00:07:38;15;13;
55276;PMS5003;41136;51.478;-2.610;2023-07-02T00:10:04;13;13;
55276;PMS5003;41136;51.478;-2.610;2023-07-02T00:12:29;16;16;
55276;PMS5003;41136;51.478;-2.610;2023-07-02T00:14:54;16;12;
55276;PMS5003;41136;51.478;-2.610;2023-07-02T00:17:20;15;15;
55276;PMS5003;41136;51.478;-2.610;2023-07-02T00:19:45;18;14;
55276;PMS5003;41136;51.478;-2.610;2023-07-02T00:22:11;10;10;
55276;PMS5003;41136;51.478;-2.610;2023-07-02T00:24:36;15;14;
55276;PMS5003;41136;51.478;-2.610;2023-07-02T00:27:01;11;10;
55276;PMS5003;41136;51.478;-2.610;2023-07-02T00:29:27;15;11;
55276;PMS5003;41136;51.478;-2.610;2023-07-02T00:31:52;16;13;
55276;PMS5003;41136;51.478;-2.610;2023-07-02T00:34:17;16;13;
55276;PMS5003;41136;51.478;-2.610;2023-07-02T00:36:42;14;13;
55276;PMS5003;41136;51.478;-2.610;2023-07-02T00:39:08;20;18;
55276;PMS5003;41136;51.478;-2.610;2023-07-02T00:41:34;16;11;
55276;PMS5003;41136;51.478;-2.610;2023-07-02T00:43:59;14;12;
55276;PMS5003;41136;51.478;-2.610;2023-07-02T00:46:26;13;11;
55276;PMS5003;41136;51.478;-2.610;2023-07-02T00:48:50;14;13;
55276;PMS5003;41136;51.478;-2.610;2023-07-02T00:51:21;11;10;
55276;PMS5003;41136;51.478;-2.610;2023-07-02T00:53:41;15;11;
55276;PMS5003;41136;51.478;-2.610;2023-07-02T00:56:07;12;12;
55276;PMS5003;41136;51.478;-2.610;2023-07-02T00:58:32;15;10;
55276;PMS5003;41136;51.478;-2.610;2023-07-02T01:00:57;14;11;
55276;PMS5003;41136;51.478;-2.610;2023-07-02T01:03:22;13;12;
55276;PMS5003;41136;51.478;-2.610;2023-07-02T01:05:47;16;15;
55276;PMS5003;41136;51.478;-2.610;2023-07-02T01:10:40;14;12;
55276;PMS5003;41136;51.478;-2.610;2023-07-02T01:13:07;11;11;
55276;PMS5003;41136;51.478;-2.610;2023-07-02T01:15:31;16;13;
55276;PMS5003;41136;51.478;-2.610;2023-07-02T01:17:56;10;10;
55276;PMS5003;41136;51.478;-2.610;2023-07-02T01:20:22;12;9;
55276;PMS5003;41136;51.478;-2.610;2023-07-02T01:22:48;16;15;
55276;PMS5003;41136;51.478;-2.610;2023-07-02T01:25:14;23;22;
55276;PMS5003;41136;51.478;-2.610;2023-07-02T01:27:39;20;17;
55276;PMS5003;41136;51.478;-2.610;2023-07-02T01:30:04;22;19;
55276;PMS5003;41136;51.478;-2.610;2023-07-02T01:32:29;18;18;
55276;PMS5003;41136;51.478;-2.610;2023-07-02T01:34:55;17;16;
55276;PMS5003;41136;51.478;-2.610;2023-07-02T01:37:20;16;11;
55276;PMS5003;41136;51.478;-2.610;2023-07-02T01:39:45;14;13;
55276;PMS5003;41136;51.478;-2.610;2023-07-02T01:42:11;17;11;
55276;PMS5003;41136;51.478;-2.610;2023-07-02T01:44:36;10;10;
55276;PMS5003;41136;51.478;-2.610;2023-07-02T01:47:01;16;10;
55276;PMS5003;41136;51.478;-2.610;2023-07-02T01:49:27;14;12;
55276;PMS5003;41136;51.478;-2.610;2023-07-02T01:51:53;10;9;
55276;PMS5003;41136;51.478;-2.610;2023-07-02T01:54:18;14;10;
55276;PMS5003;41136;51.478;-2.610;2023-07-02T01:56:44;9;9;
55276;PMS5003;41136;51.478;-2.610;2023-07-02T01:59:09;10;8;
55276;PMS5003;41136;51.478;-2.610;2023-07-02T02:01:35;9;9;
55276;PMS5003;41136;51.478;-2.610;2023-07-02T02:04:00;8;8;
55276;PMS5003;41136;51.478;-2.610;2023-07-02T02:06:25;10;9;
55276;PMS5003;41136;51.478;-2.610;2023-07-02T02:08:51;13;10;
55276;PMS5003;41136;51.478;-2.610;2023-07-02T02:11:16;10;8;
55276;PMS5003;41136;51.478;-2.610;2023-07-02T02:13:42;11;9;
55276;PMS5003;41136;51.478;-2.610;2023-07-02T02:16:08;9;9;
55276;PMS5003;41136;51.478;-2.610;2023-07-02T02:18:33;9;9;
55276;PMS5003;41136;51.478;-2.610;2023-07-02T02:20:59;14;11;
55276;PMS5003;41136;51.478;-2.610;2023-07-02T02:23:25;18;12;
55276;PMS5003;41136;51.478;-2.610;2023-07-02T02:25:50;13;10;
55276;PMS5003;41136;51.478;-2.610;2023-07-02T02:28:16;12;9;
55276;PMS5003;41136;51.478;-2.610;2023-07-02T02:30:42;8;8;
55276;PMS5003;41136;51.478;-2.610;2023-07-02T02:33:07;11;10;
55276;PMS5003;41136;51.478;-2.610;2023-07-02T02:35:32;11;10;
55276;PMS5003;41136;51.478;-2.610;2023-07-02T02:38:01;10;10;
55276;PMS5003;41136;51.478;-2.610;2023-07-02T02:40:23;14;11;
55276;PMS5003;41136;51.478;-2.610;2023-07-02T02:42:48;13;10;
55276;PMS5003;41136;51.478;-2.610;2023-07-02T02:45:13;16;15;
55276;PMS5003;41136;51.478;-2.610;2023-07-02T02:47:39;11;11;
55276;PMS5003;41136;51.478;-2.610;2023-07-02T02:50:05;10;9;
55276;PMS5003;41136;51.478;-2.610;2023-07-02T02:52:30;12;11;
55276;PMS5003;41136;51.478;-2.610;2023-07-02T02:54:55;10;10;
55276;PMS5003;41136;51.478;-2.610;2023-07-02T02:57:21;10;9;
55276;PMS5003;41136;51.478;-2.610;2023-07-02T02:59:46;12;11;
55276;PMS5003;41136;51.478;-2.610;2023-07-02T03:02:12;13;10;
55276;PMS5003;41136;51.478;-2.610;2023-07-02T03:04:37;12;12;
55276;PMS5003;41136;51.478;-2.610;2023-07-02T03:07:02;12;10;
55276;PMS5003;41136;51.478;-2.610;2023-07-02T03:09:28;14;12;
55276;PMS5003;41136;51.478;-2.610;2023-07-02T03:11:53;12;10;
55276;PMS5003;41136;51.478;-2.610;2023-07-02T03:14:18;16;14;
55276;PMS5003;41136;51.478;-2.610;2023-07-02T03:16:44;14;11;
55276;PMS5003;41136;51.478;-2.610;2023-07-02T03:19:09;13;13;
55276;PMS5003;41136;51.478;-2.610;2023-07-02T03:21:35;17;13;
55276;PMS5003;41136;51.478;-2.610;2023-07-02T03:24:00;13;11;
55276;PMS5003;41136;51.478;-2.610;2023-07-02T03:26:25;11;11;
55276;PMS5003;41136;51.478;-2.610;2023-07-02T03:28:51;9;9;
55276;PMS5003;41136;51.478;-2.610;2023-07-02T03:31:17;10;10;
55276;PMS5003;41136;51.478;-2.610;2023-07-02T03:33:42;11;9;
55276;PMS5003;41136;51.478;-2.610;2023-07-02T03:36:07;13;12;
55276;PMS5003;41136;51.478;-2.610;2023-07-02T03:41:47;10;10;
55276;PMS5003;41136;51.478;-2.610;2023-07-02T03:44:13;14;11;
55276;PMS5003;41136;51.478;-2.610;2023-07-02T03:46:38;12;10;
55276;PMS5003;41136;51.478;-2.610;2023-07-02T03:49:04;12;12;
55276;PMS5003;41136;51.478;-2.610;2023-07-02T03:51:30;9;9;
55276;PMS5003;41136;51.478;-2.610;2023-07-02T03:53:55;13;12;
55276;PMS5003;41136;51.478;-2.610;2023-07-02T03:56:20;12;12;
55276;PMS5003;41136;51.478;-2.610;2023-07-02T03:58:46;17;11;
55276;PMS5003;41136;51.478;-2.610;2023-07-02T04:01:11;6;6;
55276;PMS5003;41136;51.478;-2.610;2023-07-02T04:03:36;13;12;
55276;PMS5003;41136;51.478;-2.610;2023-07-02T04:06:02;9;8;
55276;PMS5003;41136;51.478;-2.610;2023-07-02T04:08:28;9;9;
55276;PMS5003;41136;51.478;-2.610;2023-07-02T04:10:53;13;9;
55276;PMS5003;41136;51.478;-2.610;2023-07-02T04:13:19;12;9;
55276;PMS5003;41136;51.478;-2.610;2023-07-02T04:15:44;13;11;
55276;PMS5003;41136;51.478;-2.610;2023-07-02T04:18:10;15;9;
55276;PMS5003;41136;51.478;-2.610;2023-07-02T04:20:35;8;8;
55276;PMS5003;41136;51.478;-2.610;2023-07-02T04:23:01;11;11;
55276;PMS5003;41136;51.478;-2.610;2023-07-02T04:25:26;10;10;
55276;PMS5003;41136;51.478;-2.610;2023-07-02T04:27:51;8;8;
55276;PMS5003;41136;51.478;-2.610;2023-07-02T04:30:17;12;12;
55276;PMS5003;41136;51.478;-2.610;2023-07-02T04:32:42;10;10;
55276;PMS5003;41136;51.478;-2.610;2023-07-02T04:35:08;12;9;
55276;PMS5003;41136;51.478;-2.610;2023-07-02T04:37:34;11;9;
55276;PMS5003;41136;51.478;-2.610;2023-07-02T04:39:59;9;9;
55276;PMS5003;41136;51.478;-2.610;2023-07-02T04:42:25;9;8;
55276;PMS5003;41136;51.478;-2.610;2023-07-02T04:44:50;11;9;
55276;PMS5003;41136;51.478;-2.610;2023-07-02T04:47:15;11;10;
55276;PMS5003;41136;51.478;-2.610;2023-07-02T04:49:40;13;9;
55276;PMS5003;41136;51.478;-2.610;2023-07-02T04:52:06;8;8;
55276;PMS5003;41136;51.478;-2.610;2023-07-02T04:54:31;9;7;
55276;PMS5003;41136;51.478;-2.610;2023-07-02T04:56:56;9;9;
55276;PMS5003;41136;51.478;-2.610;2023-07-02T04:59:22;10;8;
55276;PMS5003;41136;51.478;-2.610;2023-07-02T05:01:47;9;7;
55276;PMS5003;41136;51.478;-2.610;2023-07-02T05:04:13;10;10;
55276;PMS5003;41136;51.478;-2.610;2023-07-02T05:06:38;12;8;
55276;PMS5003;41136;51.478;-2.610;2023-07-02T05:09:04;10;8;
55276;PMS5003;41136;51.478;-2.610;2023-07-02T05:11:29;8;8;
55276;PMS5003;41136;51.478;-2.610;2023-07-02T05:13:54;11;10;
55276;PMS5003;41136;51.478;-2.610;2023-07-02T05:16:20;8;8;
55276;PMS5003;41136;51.478;-2.610;2023-07-02T05:18:46;8;7;
55276;PMS5003;41136;51.478;-2.610;2023-07-02T05:21:11;13;10;
55276;PMS5003;41136;51.478;-2.610;2023-07-02T05:23:37;10;9;
55276;PMS5003;41136;51.478;-2.610;2023-07-02T05:26:02;8;8;
55276;PMS5003;41136;51.478;-2.610;2023-07-02T05:28:27;9;7;
55276;PMS5003;41136;51.478;-2.610;2023-07-02T05:30:53;7;7;
55276;PMS5003;41136;51.478;-2.610;2023-07-02T05:33:18;11;8;
55276;PMS5003;41136;51.478;-2.610;2023-07-02T05:35:44;9;9;
55276;PMS5003;41136;51.478;-2.610;2023-07-02T05:38:09;7;7;
55276;PMS5003;41136;51.478;-2.610;2023-07-02T05:40:34;7;7;
55276;PMS5003;41136;51.478;-2.610;2023-07-02T05:43:00;8;8;
55276;PMS5003;41136;51.478;-2.610;2023-07-02T05:45:25;9;7;
55276;PMS5003;41136;51.478;-2.610;2023-07-02T05:47:50;12;9;
55276;PMS5003;41136;51.478;-2.610;2023-07-02T05:50:16;12;8;
55276;PMS5003;41136;51.478;-2.610;2023-07-02T05:52:42;14;9;
55276;PMS5003;41136;51.478;-2.610;2023-07-02T05:55:07;9;7;
55276;PMS5003;41136;51.478;-2.610;2023-07-02T05:57:32;8;7;
55276;PMS5003;41136;51.478;-2.610;2023-07-02T05:59:58;10;8;
55276;PMS5003;41136;51.478;-2.610;2023-07-02T06:02:23;10;7;
55276;PMS5003;41136;51.478;-2.610;2023-07-02T06:04:49;7;6;
55276;PMS5003;41136;51.478;-2.610;2023-07-02T06:07:15;7;7;
55276;PMS5003;41136;51.478;-2.610;2023-07-02T06:09:41;7;6;
55276;PMS5003;41136;51.478;-2.610;2023-07-02T06:12:07;6;6;
55276;PMS5003;41136;51.478;-2.610;2023-07-02T06:14:32;9;9;
55276;PMS5003;41136;51.478;-2.610;2023-07-02T06:16:57;6;6;
55276;PMS5003;41136;51.478;-2.610;2023-07-02T06:19:22;7;7;
55276;PMS5003;41136;51.478;-2.610;2023-07-02T06:21:48;10;8;
55276;PMS5003;41136;51.478;-2.610;2023-07-02T06:24:13;7;7;
55276;PMS5003;41136;51.478;-2.610;2023-07-02T06:26:38;9;8;
55276;PMS5003;41136;51.478;-2.610;2023-07-02T06:29:04;7;6;
55276;PMS5003;41136;51.478;-2.610;2023-07-02T06:31:29;10;8;
55276;PMS5003;41136;51.478;-2.610;2023-07-02T06:33:54;8;8;
55276;PMS5003;41136;51.478;-2.610;2023-07-02T06:36:20;7;6;
55276;PMS5003;41136;51.478;-2.610;2023-07-02T06:38:45;10;8;
55276;PMS5003;41136;51.478;-2.610;2023-07-02T06:41:11;12;7;
55276;PMS5003;41136;51.478;-2.610;2023-07-02T06:43:36;6;5;
55276;PMS5003;41136;51.478;-2.610;2023-07-02T06:46:01;7;6;
55276;PMS5003;41136;51.478;-2.610;2023-07-02T06:48:26;7;7;
55276;PMS5003;41136;51.478;-2.610;2023-07-02T06:50:51;8;7;
55276;PMS5003;41136;51.478;-2.610;2023-07-02T06:53:17;10;8;
55276;PMS5003;41136;51.478;-2.610;2023-07-02T06:55:43;9;7;
55276;PMS5003;41136;51.478;-2.610;2023-07-02T06:58:08;8;6;
55276;PMS5003;41136;51.478;-2.610;2023-07-02T07:00:33;6;6;
55276;PMS5003;41136;51.478;-2.610;2023-07-02T07:02:59;11;11;
55276;PMS5003;41136;51.478;-2.610;2023-07-02T07:05:24;6;6;
55276;PMS5003;41136;51.478;-2.610;2023-07-02T07:07:50;8;6;
55276;PMS5003;41136;51.478;-2.610;2023-07-02T07:10:15;7;7;
55276;PMS5003;41136;51.478;-2.610;2023-07-02T07:12:41;6;6;
55276;PMS5003;41136;51.478;-2.610;2023-07-02T07:15:07;9;7;
55276;PMS5003;41136;51.478;-2.610;2023-07-02T07:17:31;9;6;
55276;PMS5003;41136;51.478;-2.610;2023-07-02T07:19:57;7;6;
55276;PMS5003;41136;51.478;-2.610;2023-07-02T07:22:23;6;6;
55276;PMS5003;41136;51.478;-2.610;2023-07-02T07:24:48;9;6;
55276;PMS5003;41136;51.478;-2.610;2023-07-02T07:27:13;8;6;
55276;PMS5003;41136;51.478;-2.610;2023-07-02T07:29:39;10;8;
55276;PMS5003;41136;51.478;-2.610;2023-07-02T07:32:04;5;5;
55276;PMS5003;41136;51.478;-2.610;2023-07-02T07:34:29;6;6;
55276;PMS5003;41136;51.478;-2.610;2023-07-02T07:36:55;11;9;
55276;PMS5003;41136;51.478;-2.610;2023-07-02T07:39:20;7;6;
55276;PMS5003;41136;51.478;-2.610;2023-07-02T07:41:46;10;9;
55276;PMS5003;41136;51.478;-2.610;2023-07-02T07:44:10;6;6;
55276;PMS5003;41136;51.478;-2.610;2023-07-02T07:46:35;6;6;
55276;PMS5003;41136;51.478;-2.610;2023-07-02T07:49:01;6;6;
55276;PMS5003;41136;51.478;-2.610;2023-07-02T07:51:26;9;7;
55276;PMS5003;41136;51.478;-2.610;2023-07-02T07:53:51;6;6;
55276;PMS5003;41136;51.478;-2.610;2023-07-02T07:56:17;6;5;
55276;PMS5003;41136;51.478;-2.610;2023-07-02T07:58:42;8;5;
55276;PMS5003;41136;51.478;-2.610;2023-07-02T08:01:08;8;8;
55276;PMS5003;41136;51.478;-2.610;2023-07-02T08:03:36;6;4;
55276;PMS5003;41136;51.478;-2.610;2023-07-02T08:05:59;7;7;
55276;PMS5003;41136;51.478;-2.610;2023-07-02T08:08:25;10;7;
55276;PMS5003;41136;51.478;-2.610;2023-07-02T08:10:50;4;3;
55276;PMS5003;41136;51.478;-2.610;2023-07-02T08:13:16;6;5;
55276;PMS5003;41136;51.478;-2.610;2023-07-02T08:15:41;6;5;
55276;PMS5003;41136;51.478;-2.610;2023-07-02T08:18:06;7;5;
55276;PMS5003;41136;51.478;-2.610;2023-07-02T08:20:32;7;5;
55276;PMS5003;41136;51.478;-2.610;2023-07-02T08:22:57;7;4;
55276;PMS5003;41136;51.478;-2.610;2023-07-02T08:25:22;6;4;
55276;PMS5003;41136;51.478;-2.610;2023-07-02T08:27:48;10;6;
55276;PMS5003;41136;51.478;-2.610;2023-07-02T08:30:13;6;4;
55276;PMS5003;41136;51.478;-2.610;2023-07-02T08:32:38;5;4;
55276;PMS5003;41136;51.478;-2.610;2023-07-02T08:35:04;6;6;
55276;PMS5003;41136;51.478;-2.610;2023-07-02T08:37:29;8;5;
55276;PMS5003;41136;51.478;-2.610;2023-07-02T08:39:55;5;4;
55276;PMS5003;41136;51.478;-2.610;2023-07-02T08:42:20;4;4;
55276;PMS5003;41136;51.478;-2.610;2023-07-02T08:44:45;5;4;
55276;PMS5003;41136;51.478;-2.610;2023-07-02T08:47:11;4;3;
55276;PMS5003;41136;51.478;-2.610;2023-07-02T08:49:36;3;3;
55276;PMS5003;41136;51.478;-2.610;2023-07-02T08:52:02;6;5;
55276;PMS5003;41136;51.478;-2.610;2023-07-02T08:54:27;5;4;
55276;PMS5003;41136;51.478;-2.610;2023-07-02T08:56:52;9;4;
55276;PMS5003;41136;51.478;-2.610;2023-07-02T08:59:18;6;3;
55276;PMS5003;41136;51.478;-2.610;2023-07-02T09:01:44;6;4;
55276;PMS5003;41136;51.478;-2.610;2023-07-02T09:04:14;4;4;
55276;PMS5003;41136;51.478;-2.610;2023-07-02T09:06:34;3;3;
55276;PMS5003;41136;51.478;-2.610;2023-07-02T09:11:25;3;3;
55276;PMS5003;41136;51.478;-2.610;2023-07-02T09:13:50;6;5;
55276;PMS5003;41136;51.478;-2.610;2023-07-02T09:18:41;6;4;
55276;PMS5003;41136;51.478;-2.610;2023-07-02T09:21:06;5;5;
55276;PMS5003;41136;51.478;-2.610;2023-07-02T09:23:33;4;4;
55276;PMS5003;41136;51.478;-2.610;2023-07-02T09:25:57;7;5;
55276;PMS5003;41136;51.478;-2.610;2023-07-02T09:28:22;5;5;
55276;PMS5003;41136;51.478;-2.610;2023-07-02T09:30:49;5;5;
55276;PMS5003;41136;51.478;-2.610;2023-07-02T09:33:13;7;5;
55276;PMS5003;41136;51.478;-2.610;2023-07-02T09:35:38;6;6;
55276;PMS5003;41136;51.478;-2.610;2023-07-02T09:38:03;6;5;
55276;PMS5003;41136;51.478;-2.610;2023-07-02T09:40:29;4;4;
55276;PMS5003;41136;51.478;-2.610;2023-07-02T09:42:55;6;6;
55276;PMS5003;41136;51.478;-2.610;2023-07-02T09:45:20;3;3;
55276;PMS5003;41136;51.478;-2.610;2023-07-02T09:47:47;5;5;
55276;PMS5003;41136;51.478;-2.610;2023-07-02T09:50:11;7;7;
55276;PMS5003;41136;51.478;-2.610;2023-07-02T09:52:36;3;3;
55276;PMS5003;41136;51.478;-2.610;2023-07-02T09:55:01;6;6;
55276;PMS5003;41136;51.478;-2.610;2023-07-02T09:57:26;6;4;
55276;PMS5003;41136;51.478;-2.610;2023-07-02T09:59:52;3;3;
55276;PMS5003;41136;51.478;-2.610;2023-07-02T10:02:17;6;6;
55276;PMS5003;41136;51.478;-2.610;2023-07-02T10:04:43;7;6;
55276;PMS5003;41136;51.478;-2.610;2023-07-02T10:07:08;7;5;
55276;PMS5003;41136;51.478;-2.610;2023-07-02T10:09:34;4;4;
55276;PMS5003;41136;51.478;-2.610;2023-07-02T10:11:59;5;5;
55276;PMS5003;41136;51.478;-2.610;2023-07-02T10:14:24;6;6;
55276;PMS5003;41136;51.478;-2.610;2023-07-02T10:16:50;7;5;
55276;PMS5003;41136;51.478;-2.610;2023-07-02T10:19:15;7;6;
55276;PMS5003;41136;51.478;-2.610;2023-07-02T10:21:40;7;7;
55276;PMS5003;41136;51.478;-2.610;2023-07-02T10:24:10;5;5;
55276;PMS5003;41136;51.478;-2.610;2023-07-02T10:26:31;5;5;
55276;PMS5003;41136;51.478;-2.610;2023-07-02T10:28:57;8;8;
55276;PMS5003;41136;51.478;-2.610;2023-07-02T10:31:22;5;5;
55276;PMS5003;41136;51.478;-2.610;2023-07-02T10:33:47;6;4;
55276;PMS5003;41136;51.478;-2.610;2023-07-02T10:38:38;4;4;
55276;PMS5003;41136;51.478;-2.610;2023-07-02T10:41:04;4;4;
55276;PMS5003;41136;51.478;-2.610;2023-07-02T10:43:29;7;5;
55276;PMS5003;41136;51.478;-2.610;2023-07-02T10:45:54;6;4;
55276;PMS5003;41136;51.478;-2.610;2023-07-02T10:48:19;4;4;
55276;PMS5003;41136;51.478;-2.610;2023-07-02T10:50:44;6;3;
55276;PMS5003;41136;51.478;-2.610;2023-07-02T10:53:14;4;4;
55276;PMS5003;41136;51.478;-2.610;2023-07-02T10:55:35;5;5;
55276;PMS5003;41136;51.478;-2.610;2023-07-02T10:58:02;4;4;
55276;PMS5003;41136;51.478;-2.610;2023-07-02T11:00:26;4;3;
55276;PMS5003;41136;51.478;-2.610;2023-07-02T11:02:51;5;4;
55276;PMS5003;41136;51.478;-2.610;2023-07-02T11:05:17;6;4;
55276;PMS5003;41136;51.478;-2.610;2023-07-02T11:07:42;6;5;
55276;PMS5003;41136;51.478;-2.610;2023-07-02T11:10:08;5;5;
55276;PMS5003;41136;51.478;-2.610;2023-07-02T11:12:33;3;3;
55276;PMS5003;41136;51.478;-2.610;2023-07-02T11:17:24;3;1;
55276;PMS5003;41136;51.478;-2.610;2023-07-02T11:19:50;8;5;
55276;PMS5003;41136;51.478;-2.610;2023-07-02T11:22:14;6;3;
55276;PMS5003;41136;51.478;-2.610;2023-07-02T11:24:39;5;4;
55276;PMS5003;41136;51.478;-2.610;2023-07-02T11:27:05;2;2;
55276;PMS5003;41136;51.478;-2.610;2023-07-02T11:29:30;3;3;
55276;PMS5003;41136;51.478;-2.610;2023-07-02T11:34:21;2;2;
55276;PMS5003;41136;51.478;-2.610;2023-07-02T11:36:46;6;4;
55276;PMS5003;41136;51.478;-2.610;2023-07-02T11:39:12;6;5;
55276;PMS5003;41136;51.478;-2.610;2023-07-02T11:41:37;5;3;
55276;PMS5003;41136;51.478;-2.610;2023-07-02T11:44:02;5;4;
55276;PMS5003;41136;51.478;-2.610;2023-07-02T11:46:27;6;4;
55276;PMS5003;41136;51.478;-2.610;2023-07-02T11:48:53;6;2;
55276;PMS5003;41136;51.478;-2.610;2023-07-02T11:51:18;5;4;
55276;PMS5003;41136;51.478;-2.610;2023-07-02T11:53:43;3;2;
55276;PMS5003;41136;51.478;-2.610;2023-07-02T11:56:08;3;3;
55276;PMS5003;41136;51.478;-2.610;2023-07-02T11:58:34;3;3;
55276;PMS5003;41136;51.478;-2.610;2023-07-02T12:00:59;6;4;
55276;PMS5003;41136;51.478;-2.610;2023-07-02T12:03:24;5;4;
55276;PMS5003;41136;51.478;-2.610;2023-07-02T12:05:50;3;3;
55276;PMS5003;41136;51.478;-2.610;2023-07-02T12:08:15;5;4;
55276;PMS5003;41136;51.478;-2.610;2023-07-02T12:10:40;5;3;
55276;PMS5003;41136;51.478;-2.610;2023-07-02T12:13:05;4;4;
55276;PMS5003;41136;51.478;-2.610;2023-07-02T12:15:31;4;4;
55276;PMS5003;41136;51.478;-2.610;2023-07-02T12:17:56;5;5;
55276;PMS5003;41136;51.478;-2.610;2023-07-02T12:20:21;3;3;
55276;PMS5003;41136;51.478;-2.610;2023-07-02T12:22:46;4;3;
55276;PMS5003;41136;51.478;-2.610;2023-07-02T12:25:12;3;3;
55276;PMS5003;41136;51.478;-2.610;2023-07-02T12:27:37;4;4;
55276;PMS5003;41136;51.478;-2.610;2023-07-02T12:30:02;3;2;
55276;PMS5003;41136;51.478;-2.610;2023-07-02T12:32:27;4;4;
55276;PMS5003;41136;51.478;-2.610;2023-07-02T12:34:53;6;5;
55276;PMS5003;41136;51.478;-2.610;2023-07-02T12:37:18;3;3;
55276;PMS5003;41136;51.478;-2.610;2023-07-02T12:39:43;2;2;
55276;PMS5003;41136;51.478;-2.610;2023-07-02T12:42:08;5;5;
55276;PMS5003;41136;51.478;-2.610;2023-07-02T12:44:34;2;2;
55276;PMS5003;41136;51.478;-2.610;2023-07-02T12:46:59;3;3;
55276;PMS5003;41136;51.478;-2.610;2023-07-02T12:49:24;5;3;
55276;PMS5003;41136;51.478;-2.610;2023-07-02T12:51:49;6;3;
55276;PMS5003;41136;51.478;-2.610;2023-07-02T12:54:15;5;4;
55276;PMS5003;41136;51.478;-2.610;2023-07-02T12:56:40;3;3;
55276;PMS5003;41136;51.478;-2.610;2023-07-02T12:59:05;5;3;
55276;PMS5003;41136;51.478;-2.610;2023-07-02T13:01:30;5;4;
55276;PMS5003;41136;51.478;-2.610;2023-07-02T13:03:56;2;2;
55276;PMS5003;41136;51.478;-2.610;2023-07-02T13:06:21;1;1;
55276;PMS5003;41136;51.478;-2.610;2023-07-02T13:08:47;5;3;
55276;PMS5003;41136;51.478;-2.610;2023-07-02T13:11:12;2;2;
55276;PMS5003;41136;51.478;-2.610;2023-07-02T13:13:38;3;3;
55276;PMS5003;41136;51.478;-2.610;2023-07-02T13:16:03;5;3;
55276;PMS5003;41136;51.478;-2.610;2023-07-02T13:18:28;3;3;
55276;PMS5003;41136;51.478;-2.610;2023-07-02T13:20:53;2;2;
55276;PMS5003;41136;51.478;-2.610;2023-07-02T13:23:18;3;3;
55276;PMS5003;41136;51.478;-2.610;2023-07-02T13:25:44;5;4;
55276;PMS5003;41136;51.478;-2.610;2023-07-02T13:28:10;3;2;
55276;PMS5003;41136;51.478;-2.610;2023-07-02T13:30:35;3;3;
55276;PMS5003;41136;51.478;-2.610;2023-07-02T13:33:00;3;2;
55276;PMS5003;41136;51.478;-2.610;2023-07-02T13:35:25;4;3;
55276;PMS5003;41136;51.478;-2.610;2023-07-02T13:37:51;6;4;
55276;PMS5003;41136;51.478;-2.610;2023-07-02T13:40:16;3;3;
55276;PMS5003;41136;51.478;-2.610;2023-07-02T13:42:41;2;2;
55276;PMS5003;41136;51.478;-2.610;2023-07-02T13:45:07;1;1;
55276;PMS5003;41136;51.478;-2.610;2023-07-02T13:47:32;4;3;
55276;PMS5003;41136;51.478;-2.610;2023-07-02T13:49:57;5;4;
55276;PMS5003;41136;51.478;-2.610;2023-07-02T13:52:22;3;2;
55276;PMS5003;41136;51.478;-2.610;2023-07-02T13:54:47;4;4;
55276;PMS5003;41136;51.478;-2.610;2023-07-02T13:57:13;2;2;
55276;PMS5003;41136;51.478;-2.610;2023-07-02T13:59:38;3;2;
55276;PMS5003;41136;51.478;-2.610;2023-07-02T14:02:03;6;5;
55276;PMS5003;41136;51.478;-2.610;2023-07-02T14:04:29;3;2;
55276;PMS5003;41136;51.478;-2.610;2023-07-02T14:06:54;3;3;
55276;PMS5003;41136;51.478;-2.610;2023-07-02T14:09:19;2;2;
55276;PMS5003;41136;51.478;-2.610;2023-07-02T14:11:44;3;3;
55276;PMS5003;41136;51.478;-2.610;2023-07-02T14:14:10;2;2;
55276;PMS5003;41136;51.478;-2.610;2023-07-02T14:16:35;4;4;
55276;PMS5003;41136;51.478;-2.610;2023-07-02T14:19:00;4;3;
55276;PMS5003;41136;51.478;-2.610;2023-07-02T14:21:26;6;3;
55276;PMS5003;41136;51.478;-2.610;2023-07-02T14:23:51;3;3;
55276;PMS5003;41136;51.478;-2.610;2023-07-02T14:26:16;6;4;
55276;PMS5003;41136;51.478;-2.610;2023-07-02T14:28:41;3;2;
55276;PMS5003;41136;51.478;-2.610;2023-07-02T14:31:07;3;2;
55276;PMS5003;41136;51.478;-2.610;2023-07-02T14:33:33;4;2;
55276;PMS5003;41136;51.478;-2.610;2023-07-02T14:35:57;3;3;
55276;PMS5003;41136;51.478;-2.610;2023-07-02T14:38:23;5;3;
55276;PMS5003;41136;51.478;-2.610;2023-07-02T14:40:48;4;4;
55276;PMS5003;41136;51.478;-2.610;2023-07-02T14:43:13;2;2;
55276;PMS5003;41136;51.478;-2.610;2023-07-02T14:45:42;5;4;
55276;PMS5003;41136;51.478;-2.610;2023-07-02T14:48:04;5;4;
55276;PMS5003;41136;51.478;-2.610;2023-07-02T14:50:29;4;3;
55276;PMS5003;41136;51.478;-2.610;2023-07-02T14:52:54;3;3;
55276;PMS5003;41136;51.478;-2.610;2023-07-02T14:55:20;3;3;
55276;PMS5003;41136;51.478;-2.610;2023-07-02T14:59:22;1;1;
55276;PMS5003;41136;51.478;-2.610;2023-07-02T15:01:46;3;3;
55276;PMS5003;41136;51.478;-2.610;2023-07-02T15:04:12;5;4;
55276;PMS5003;41136;51.478;-2.610;2023-07-02T15:06:37;4;3;
55276;PMS5003;41136;51.478;-2.610;2023-07-02T15:09:02;4;4;
55276;PMS5003;41136;51.478;-2.610;2023-07-02T15:11:27;7;3;
55276;PMS5003;41136;51.478;-2.610;2023-07-02T15:13:53;3;3;
55276;PMS5003;41136;51.478;-2.610;2023-07-02T15:16:18;4;4;
55276;PMS5003;41136;51.478;-2.610;2023-07-02T15:18:43;8;3;
55276;PMS5003;41136;51.478;-2.610;2023-07-02T15:21:08;4;3;
55276;PMS5003;41136;51.478;-2.610;2023-07-02T15:23:34;4;3;
55276;PMS5003;41136;51.478;-2.610;2023-07-02T15:25:59;3;3;
55276;PMS5003;41136;51.478;-2.610;2023-07-02T15:28:24;4;4;
55276;PMS5003;41136;51.478;-2.610;2023-07-02T15:30:51;3;3;
55276;PMS5003;41136;51.478;-2.610;2023-07-02T15:33:15;3;3;
55276;PMS5003;41136;51.478;-2.610;2023-07-02T15:35:40;2;2;
55276;PMS5003;41136;51.478;-2.610;2023-07-02T15:38:05;2;2;
55276;PMS5003;41136;51.478;-2.610;2023-07-02T15:40:31;2;2;
55276;PMS5003;41136;51.478;-2.610;2023-07-02T15:42:56;4;4;
55276;PMS5003;41136;51.478;-2.610;2023-07-02T15:45:22;4;4;
55276;PMS5003;41136;51.478;-2.610;2023-07-02T15:47:47;2;1;
55276;PMS5003;41136;51.478;-2.610;2023-07-02T15:50:12;4;3;
55276;PMS5003;41136;51.478;-2.610;2023-07-02T15:52:38;3;3;
55276;PMS5003;41136;51.478;-2.610;2023-07-02T15:55:03;2;2;
55276;PMS5003;41136;51.478;-2.610;2023-07-02T15:59:52;1;1;
55276;PMS5003;41136;51.478;-2.610;2023-07-02T16:02:16;5;4;
55276;PMS5003;41136;51.478;-2.610;2023-07-02T16:04:42;1;1;
55276;PMS5003;41136;51.478;-2.610;2023-07-02T16:07:07;4;4;
55276;PMS5003;41136;51.478;-2.610;2023-07-02T16:09:32;3;3;
55276;PMS5003;41136;51.478;-2.610;2023-07-02T16:11:57;4;2;
55276;PMS5003;41136;51.478;-2.610;2023-07-02T16:14:23;2;2;
55276;PMS5003;41136;51.478;-2.610;2023-07-02T16:16:48;3;3;
55276;PMS5003;41136;51.478;-2.610;2023-07-02T16:22:46;5;4;
55276;PMS5003;41136;51.478;-2.610;2023-07-02T16:25:11;3;3;
55276;PMS5003;41136;51.478;-2.610;2023-07-02T16:27:36;2;2;
55276;PMS5003;41136;51.478;-2.610;2023-07-02T16:30:02;4;4;
55276;PMS5003;41136;51.478;-2.610;2023-07-02T16:34:51;4;3;
55276;PMS5003;41136;51.478;-2.610;2023-07-02T16:37:16;7;3;
55276;PMS5003;41136;51.478;-2.610;2023-07-02T16:39:42;4;4;